RYR94PB EGSS-LMML
Flight info
| Callsign | RYR94PB |
|---|---|
| Flight time | N/A |
| Altitude | 35000 |
| Route | NUGBO M183 SILVA Q41 COWLY UL612 OGULO DCT OKASI DCT OKEKO DCT MOU DCT MADIV DCT MOKIP DCT TUFTA DCT KOGAS DCT MEDAM DCT NITAM DCT MOGBO DCT OLETI DCT EVROG DCT BAKRO DCT PAL DCT MARON L12 GZO |
| Aircraft | B738/M-SDE2E3FGHIRWXY/LB1 |
Departure
| Time | 2026-05-01 13:22 |
|---|---|
| Airport | London Stansted Airport (EGSS) |
Arrival
| Time | N/A |
|---|---|
| Airport | Malta International Airport (LMML) |
| Time | Latitude | Longitude | Altitude | Speed | Heading |
|---|---|---|---|---|---|
| 2026-05-01 12:48 | 51.89276 | 0.26182 | 351 ft | 0 kts | 223° |
| 2026-05-01 13:08 | 51.89281 | 0.26189 | 349 ft | 2 kts | 213° |
| 2026-05-01 13:09 | 51.89297 | 0.26199 | 349 ft | 2 kts | 177° |
| 2026-05-01 13:09 | 51.89313 | 0.26199 | 343 ft | 2 kts | 195° |
| 2026-05-01 13:09 | 51.89325 | 0.26216 | 354 ft | 2 kts | 264° |
| 2026-05-01 13:09 | 51.89322 | 0.26242 | 349 ft | 2 kts | 340° |
| 2026-05-01 13:10 | 51.89307 | 0.26251 | 349 ft | 0 kts | 319° |
| 2026-05-01 13:10 | 51.89305 | 0.26250 | 350 ft | 0 kts | 296° |
| 2026-05-01 13:13 | 51.89318 | 0.26230 | 352 ft | 6 kts | 315° |
| 2026-05-01 13:13 | 51.89357 | 0.26163 | 346 ft | 10 kts | 313° |
| 2026-05-01 13:14 | 51.89433 | 0.26031 | 343 ft | 19 kts | 312° |
| 2026-05-01 13:14 | 51.89515 | 0.25888 | 347 ft | 13 kts | 311° |
| 2026-05-01 13:14 | 51.89582 | 0.25814 | 342 ft | 11 kts | 328° |
| 2026-05-01 13:14 | 51.89611 | 0.25716 | 342 ft | 10 kts | 257° |
| 2026-05-01 13:15 | 51.89574 | 0.25642 | 346 ft | 9 kts | 223° |
| 2026-05-01 13:15 | 51.89511 | 0.25547 | 345 ft | 17 kts | 223° |
| 2026-05-01 13:15 | 51.89412 | 0.25398 | 351 ft | 20 kts | 223° |
| 2026-05-01 13:15 | 51.89312 | 0.25250 | 351 ft | 19 kts | 222° |
| 2026-05-01 13:16 | 51.89231 | 0.25082 | 346 ft | 19 kts | 238° |
| 2026-05-01 13:16 | 51.89146 | 0.24931 | 342 ft | 18 kts | 222° |
| 2026-05-01 13:16 | 51.89054 | 0.24797 | 345 ft | 17 kts | 222° |
| 2026-05-01 13:17 | 51.88803 | 0.24419 | 353 ft | 16 kts | 222° |
| 2026-05-01 13:17 | 51.88725 | 0.24304 | 347 ft | 15 kts | 222° |
| 2026-05-01 13:18 | 51.88581 | 0.24084 | 339 ft | 14 kts | 224° |
| 2026-05-01 13:18 | 51.88513 | 0.23979 | 338 ft | 14 kts | 224° |
| 2026-05-01 13:18 | 51.88433 | 0.23858 | 339 ft | 19 kts | 223° |
| 2026-05-01 13:18 | 51.88324 | 0.23694 | 336 ft | 23 kts | 222° |
| 2026-05-01 13:19 | 51.88207 | 0.23523 | 335 ft | 22 kts | 223° |
| 2026-05-01 13:19 | 51.88092 | 0.23350 | 336 ft | 24 kts | 223° |
| 2026-05-01 13:19 | 51.87837 | 0.22970 | 335 ft | 24 kts | 223° |
| 2026-05-01 13:20 | 51.87725 | 0.22801 | 334 ft | 21 kts | 223° |
| 2026-05-01 13:20 | 51.87620 | 0.22644 | 335 ft | 20 kts | 223° |
| 2026-05-01 13:20 | 51.87517 | 0.22491 | 333 ft | 20 kts | 223° |
| 2026-05-01 13:21 | 51.87437 | 0.22144 | 330 ft | 19 kts | 311° |
| 2026-05-01 13:21 | 51.87511 | 0.22030 | 328 ft | 8 kts | 345° |
| 2026-05-01 13:21 | 51.87561 | 0.22073 | 327 ft | 10 kts | 41° |
| 2026-05-01 13:21 | 51.87586 | 0.22110 | 329 ft | 3 kts | 43° |
| 2026-05-01 13:22 | 51.87649 | 0.22204 | 328 ft | 45 kts | 43° |
| 2026-05-01 13:22 | 51.88106 | 0.22889 | 329 ft | 132 kts | 44° |
| 2026-05-01 13:22 | 51.88906 | 0.24144 | 626 ft | 181 kts | 47° |
| 2026-05-01 13:22 | 51.89906 | 0.25635 | 1323 ft | 211 kts | 45° |
| 2026-05-01 13:23 | 51.91051 | 0.27296 | 2098 ft | 232 kts | 46° |
| 2026-05-01 13:23 | 51.92271 | 0.29145 | 2954 ft | 235 kts | 46° |
| 2026-05-01 13:23 | 51.93034 | 0.30286 | 4067 ft | 207 kts | 39° |
| 2026-05-01 13:23 | 51.94877 | 0.31139 | 4743 ft | 240 kts | 352° |
| 2026-05-01 13:24 | 51.96034 | 0.30578 | 4039 ft | 274 kts | 324° |
| 2026-05-01 13:24 | 51.97148 | 0.28236 | 4199 ft | 245 kts | 281° |
| 2026-05-01 13:24 | 51.97138 | 0.25721 | 4804 ft | 205 kts | 256° |
| 2026-05-01 13:25 | 51.97449 | 0.21094 | 5783 ft | 231 kts | 275° |
| 2026-05-01 13:25 | 51.97710 | 0.18318 | 6156 ft | 258 kts | 275° |
| 2026-05-01 13:25 | 51.97992 | 0.15391 | 6531 ft | 269 kts | 276° |
| 2026-05-01 13:25 | 51.98314 | 0.12340 | 6894 ft | 272 kts | 276° |
| 2026-05-01 13:26 | 51.98639 | 0.09312 | 7274 ft | 274 kts | 276° |
| 2026-05-01 13:26 | 51.98923 | 0.06231 | 7621 ft | 278 kts | 267° |
| 2026-05-01 13:26 | 51.98475 | 0.03288 | 7980 ft | 267 kts | 233° |
| 2026-05-01 13:26 | 51.97129 | 0.01356 | 8360 ft | 266 kts | 201° |
| 2026-05-01 13:27 | 51.95336 | 0.00653 | 8779 ft | 267 kts | 187° |
| 2026-05-01 13:27 | 51.93458 | 0.00380 | 9147 ft | 267 kts | 184° |
| 2026-05-01 13:27 | 51.89836 | -0.00108 | 9882 ft | 269 kts | 185° |
| 2026-05-01 13:28 | 51.86065 | -0.00735 | 10517 ft | 275 kts | 186° |
| 2026-05-01 13:28 | 51.84074 | -0.01111 | 10696 ft | 301 kts | 186° |
| 2026-05-01 13:29 | 51.79721 | -0.01978 | 11857 ft | 321 kts | 187° |
| 2026-05-01 13:29 | 51.75259 | -0.02912 | 13509 ft | 325 kts | 187° |
| 2026-05-01 13:30 | 51.66264 | -0.04840 | 16274 ft | 338 kts | 187° |
| 2026-05-01 13:31 | 51.61551 | -0.05858 | 17631 ft | 345 kts | 187° |
| 2026-05-01 13:31 | 51.54392 | -0.07402 | 19437 ft | 355 kts | 187° |
| 2026-05-01 13:32 | 51.49451 | -0.08465 | 20578 ft | 361 kts | 187° |
| 2026-05-01 13:33 | 51.41894 | -0.10085 | 22252 ft | 370 kts | 187° |
| 2026-05-01 13:33 | 51.38460 | -0.10820 | 22981 ft | 374 kts | 187° |
| 2026-05-01 13:34 | 51.36697 | -0.11196 | 23340 ft | 376 kts | 187° |
| 2026-05-01 13:34 | 51.31463 | -0.12314 | 24270 ft | 382 kts | 187° |
| 2026-05-01 13:35 | 51.26163 | -0.13442 | 25157 ft | 386 kts | 187° |
| 2026-05-01 13:35 | 51.23489 | -0.14010 | 25564 ft | 389 kts | 187° |
| 2026-05-01 13:35 | 51.18089 | -0.15156 | 26372 ft | 394 kts | 186° |
| 2026-05-01 13:36 | 51.15361 | -0.15733 | 26766 ft | 397 kts | 186° |
| 2026-05-01 13:36 | 51.12615 | -0.16314 | 27149 ft | 399 kts | 186° |
| 2026-05-01 13:36 | 51.07075 | -0.17484 | 27897 ft | 404 kts | 186° |
| 2026-05-01 13:37 | 51.04282 | -0.18072 | 28257 ft | 406 kts | 186° |
| 2026-05-01 13:37 | 51.01473 | -0.18664 | 28620 ft | 409 kts | 186° |
| 2026-05-01 13:37 | 50.98640 | -0.19259 | 28975 ft | 411 kts | 186° |
| 2026-05-01 13:37 | 50.95797 | -0.19856 | 29333 ft | 413 kts | 186° |
| 2026-05-01 13:38 | 50.90069 | -0.21057 | 30025 ft | 417 kts | 186° |
| 2026-05-01 13:38 | 50.87192 | -0.21659 | 30467 ft | 415 kts | 186° |
| 2026-05-01 13:38 | 50.84335 | -0.22257 | 30888 ft | 414 kts | 186° |
| 2026-05-01 13:39 | 50.81481 | -0.22853 | 31238 ft | 414 kts | 186° |
| 2026-05-01 13:39 | 50.78620 | -0.23449 | 31551 ft | 415 kts | 186° |
| 2026-05-01 13:39 | 50.75764 | -0.24043 | 31895 ft | 414 kts | 186° |
| 2026-05-01 13:39 | 50.72896 | -0.24384 | 32228 ft | 413 kts | 176° |
| 2026-05-01 13:40 | 50.70060 | -0.23694 | 32555 ft | 413 kts | 165° |
| 2026-05-01 13:40 | 50.67352 | -0.22188 | 32885 ft | 413 kts | 155° |
| 2026-05-01 13:40 | 50.64888 | -0.19855 | 33200 ft | 414 kts | 147° |
| 2026-05-01 13:40 | 50.62508 | -0.17313 | 33533 ft | 414 kts | 147° |
| 2026-05-01 13:41 | 50.60129 | -0.14747 | 33847 ft | 414 kts | 147° |
| 2026-05-01 13:41 | 50.57751 | -0.12206 | 34177 ft | 413 kts | 147° |
| 2026-05-01 13:41 | 50.55368 | -0.09689 | 34458 ft | 413 kts | 147° |
| 2026-05-01 13:41 | 50.52975 | -0.07185 | 34670 ft | 414 kts | 147° |
| 2026-05-01 13:42 | 50.50573 | -0.04684 | 34896 ft | 414 kts | 148° |
| 2026-05-01 13:42 | 50.48169 | -0.02187 | 35158 ft | 414 kts | 148° |
| 2026-05-01 13:42 | 50.45756 | 0.00316 | 35192 ft | 418 kts | 148° |
| 2026-05-01 13:43 | 50.40895 | 0.05367 | 35197 ft | 419 kts | 147° |
| 2026-05-01 13:43 | 50.36080 | 0.10368 | 35204 ft | 411 kts | 147° |
| 2026-05-01 13:44 | 50.31315 | 0.15311 | 35222 ft | 411 kts | 147° |
| 2026-05-01 13:44 | 50.26555 | 0.20242 | 35212 ft | 411 kts | 147° |
| 2026-05-01 13:45 | 50.21790 | 0.25166 | 35222 ft | 411 kts | 147° |
| 2026-05-01 13:45 | 50.17016 | 0.30080 | 35220 ft | 411 kts | 147° |
| 2026-05-01 13:46 | 50.12239 | 0.34976 | 35210 ft | 411 kts | 147° |
| 2026-05-01 13:46 | 50.07458 | 0.39868 | 35211 ft | 411 kts | 147° |
| 2026-05-01 13:47 | 50.02675 | 0.44753 | 35211 ft | 411 kts | 147° |
| 2026-05-01 13:47 | 49.97887 | 0.49632 | 35216 ft | 411 kts | 147° |
| 2026-05-01 13:48 | 49.93102 | 0.54496 | 35202 ft | 411 kts | 147° |
| 2026-05-01 13:48 | 49.88320 | 0.59346 | 35217 ft | 410 kts | 147° |
| 2026-05-01 13:49 | 49.83667 | 0.64452 | 35220 ft | 410 kts | 142° |
| 2026-05-01 13:49 | 49.79255 | 0.70037 | 35189 ft | 410 kts | 141° |
| 2026-05-01 13:50 | 49.74852 | 0.75622 | 35211 ft | 409 kts | 141° |
| 2026-05-01 13:50 | 49.70444 | 0.81169 | 35202 ft | 408 kts | 142° |
| 2026-05-01 13:51 | 49.66034 | 0.86687 | 35199 ft | 408 kts | 142° |
| 2026-05-01 13:51 | 49.61625 | 0.92186 | 35201 ft | 407 kts | 142° |
| 2026-05-01 13:52 | 49.57223 | 0.97666 | 35218 ft | 407 kts | 142° |
| 2026-05-01 13:52 | 49.52807 | 1.03150 | 35200 ft | 408 kts | 142° |
| 2026-05-01 13:53 | 49.48394 | 1.08617 | 35200 ft | 407 kts | 142° |
| 2026-05-01 13:53 | 49.41773 | 1.16798 | 35205 ft | 407 kts | 142° |
| 2026-05-01 13:54 | 49.37372 | 1.22215 | 35232 ft | 406 kts | 142° |
| 2026-05-01 13:54 | 49.32917 | 1.27688 | 35205 ft | 407 kts | 142° |
| 2026-05-01 13:55 | 49.28498 | 1.33109 | 35209 ft | 406 kts | 142° |
| 2026-05-01 13:55 | 49.24089 | 1.38503 | 35202 ft | 406 kts | 142° |
| 2026-05-01 13:56 | 49.19684 | 1.43881 | 35210 ft | 405 kts | 142° |
| 2026-05-01 13:56 | 49.15292 | 1.49231 | 35203 ft | 404 kts | 142° |
| 2026-05-01 13:57 | 49.11632 | 1.53679 | 35202 ft | 403 kts | 142° |
| 2026-05-01 13:57 | 49.06499 | 1.59903 | 35200 ft | 403 kts | 142° |
| 2026-05-01 13:58 | 49.02820 | 1.64355 | 35202 ft | 403 kts | 142° |
| 2026-05-01 13:58 | 48.98426 | 1.69659 | 35198 ft | 403 kts | 142° |
| 2026-05-01 13:59 | 48.94257 | 1.74680 | 35190 ft | 403 kts | 142° |
| 2026-05-01 13:59 | 48.89701 | 1.80155 | 35209 ft | 404 kts | 142° |
| 2026-05-01 14:00 | 48.85453 | 1.85249 | 35206 ft | 404 kts | 142° |
| 2026-05-01 14:00 | 48.81028 | 1.90541 | 35217 ft | 405 kts | 142° |
| 2026-05-01 14:01 | 48.78144 | 1.93985 | 35209 ft | 406 kts | 142° |
| 2026-05-01 14:02 | 48.73847 | 1.99106 | 35207 ft | 406 kts | 142° |
| 2026-05-01 14:03 | 48.69367 | 2.04434 | 35220 ft | 407 kts | 142° |
| 2026-05-01 14:03 | 48.64908 | 2.09725 | 35219 ft | 408 kts | 142° |
| 2026-05-01 14:04 | 48.60441 | 2.15015 | 35217 ft | 408 kts | 143° |
| 2026-05-01 14:04 | 48.56023 | 2.20424 | 35205 ft | 409 kts | 137° |
| 2026-05-01 14:05 | 48.52013 | 2.26518 | 35218 ft | 409 kts | 136° |
| 2026-05-01 14:05 | 48.47972 | 2.32701 | 35213 ft | 409 kts | 136° |
| 2026-05-01 14:06 | 48.43961 | 2.38779 | 35213 ft | 409 kts | 136° |
| 2026-05-01 14:06 | 48.39933 | 2.44850 | 35202 ft | 409 kts | 136° |
| 2026-05-01 14:07 | 48.35882 | 2.50939 | 35194 ft | 409 kts | 136° |
| 2026-05-01 14:08 | 48.29844 | 2.59965 | 35211 ft | 409 kts | 139° |
| 2026-05-01 14:08 | 48.25150 | 2.64748 | 35206 ft | 407 kts | 156° |
| 2026-05-01 14:09 | 48.19978 | 2.68263 | 35206 ft | 408 kts | 153° |
| 2026-05-01 14:09 | 48.14978 | 2.72352 | 35194 ft | 410 kts | 152° |
| 2026-05-01 14:10 | 48.09966 | 2.76464 | 35213 ft | 412 kts | 153° |
| 2026-05-01 14:10 | 48.04851 | 2.80116 | 35222 ft | 412 kts | 158° |
| 2026-05-01 14:11 | 47.99573 | 2.83426 | 35206 ft | 414 kts | 158° |
| 2026-05-01 14:11 | 47.91573 | 2.88446 | 35206 ft | 417 kts | 158° |
| 2026-05-01 14:12 | 47.86225 | 2.91830 | 35201 ft | 418 kts | 158° |
| 2026-05-01 14:12 | 47.80864 | 2.95221 | 35202 ft | 419 kts | 158° |
| 2026-05-01 14:13 | 47.76365 | 2.98061 | 35207 ft | 419 kts | 158° |
| 2026-05-01 14:13 | 47.70115 | 3.01996 | 35215 ft | 420 kts | 159° |
| 2026-05-01 14:14 | 47.64732 | 3.05378 | 35211 ft | 421 kts | 159° |
| 2026-05-01 14:14 | 47.59337 | 3.08761 | 35208 ft | 421 kts | 159° |
| 2026-05-01 14:15 | 47.53939 | 3.12136 | 35213 ft | 422 kts | 159° |
| 2026-05-01 14:15 | 47.48525 | 3.15509 | 35207 ft | 422 kts | 160° |
| 2026-05-01 14:16 | 47.43101 | 3.18879 | 35208 ft | 423 kts | 160° |
| 2026-05-01 14:16 | 47.37673 | 3.22246 | 35207 ft | 424 kts | 160° |
| 2026-05-01 14:17 | 47.32234 | 3.25614 | 35210 ft | 424 kts | 160° |
| 2026-05-01 14:17 | 47.26788 | 3.28978 | 35208 ft | 425 kts | 160° |
| 2026-05-01 14:18 | 47.21327 | 3.32344 | 35207 ft | 426 kts | 161° |
| 2026-05-01 14:18 | 47.16786 | 3.35137 | 35214 ft | 426 kts | 161° |
| 2026-05-01 14:19 | 47.10382 | 3.39067 | 35213 ft | 428 kts | 161° |
| 2026-05-01 14:19 | 47.04878 | 3.42437 | 35213 ft | 429 kts | 161° |
| 2026-05-01 14:20 | 46.96592 | 3.47496 | 35213 ft | 431 kts | 161° |
| 2026-05-01 14:21 | 46.91048 | 3.50872 | 35216 ft | 432 kts | 161° |
| 2026-05-01 14:21 | 46.85488 | 3.54251 | 35209 ft | 434 kts | 161° |
| 2026-05-01 14:22 | 46.77118 | 3.59322 | 35217 ft | 435 kts | 161° |
| 2026-05-01 14:22 | 46.71890 | 3.63770 | 35220 ft | 447 kts | 136° |
| 2026-05-01 14:23 | 46.70079 | 3.67468 | 35208 ft | 454 kts | 118° |
| 2026-05-01 14:23 | 46.69057 | 3.71845 | 35243 ft | 458 kts | 106° |
| 2026-05-01 14:23 | 46.67627 | 3.80909 | 35220 ft | 460 kts | 105° |
| 2026-05-01 14:24 | 46.66130 | 3.89978 | 35209 ft | 461 kts | 106° |
| 2026-05-01 14:24 | 46.64558 | 3.99027 | 35213 ft | 461 kts | 106° |
| 2026-05-01 14:25 | 46.62987 | 4.08073 | 35216 ft | 461 kts | 106° |
| 2026-05-01 14:25 | 46.61668 | 4.15656 | 35216 ft | 461 kts | 106° |
| 2026-05-01 14:26 | 46.59307 | 4.29158 | 35211 ft | 460 kts | 106° |
| 2026-05-01 14:27 | 46.57718 | 4.38184 | 35216 ft | 458 kts | 106° |
| 2026-05-01 14:27 | 46.56134 | 4.47137 | 35226 ft | 457 kts | 106° |
| 2026-05-01 14:28 | 46.53772 | 4.60403 | 35220 ft | 455 kts | 106° |
| 2026-05-01 14:28 | 46.52191 | 4.69229 | 35218 ft | 454 kts | 106° |
| 2026-05-01 14:29 | 46.50596 | 4.78086 | 35217 ft | 453 kts | 106° |
| 2026-05-01 14:30 | 46.47396 | 4.95741 | 35222 ft | 452 kts | 106° |
| 2026-05-01 14:31 | 46.44980 | 5.08964 | 35225 ft | 452 kts | 106° |
| 2026-05-01 14:31 | 46.43381 | 5.17599 | 35226 ft | 452 kts | 106° |
| 2026-05-01 14:32 | 46.41717 | 5.26529 | 35232 ft | 453 kts | 106° |
| 2026-05-01 14:32 | 46.40071 | 5.35332 | 35236 ft | 453 kts | 106° |
| 2026-05-01 14:33 | 46.37678 | 5.43708 | 35242 ft | 450 kts | 123° |
| 2026-05-01 14:33 | 46.33838 | 5.50787 | 35245 ft | 447 kts | 133° |
| 2026-05-01 14:34 | 46.29748 | 5.57554 | 35248 ft | 447 kts | 133° |
| 2026-05-01 14:34 | 46.25667 | 5.64354 | 35241 ft | 448 kts | 133° |
| 2026-05-01 14:35 | 46.21608 | 5.71179 | 35251 ft | 448 kts | 132° |
| 2026-05-01 14:35 | 46.17554 | 5.78002 | 35246 ft | 448 kts | 132° |
| 2026-05-01 14:36 | 46.13491 | 5.84824 | 35254 ft | 448 kts | 132° |
| 2026-05-01 14:36 | 46.09422 | 5.91639 | 35247 ft | 448 kts | 132° |
| 2026-05-01 14:37 | 46.05360 | 5.98422 | 35241 ft | 448 kts | 132° |
| 2026-05-01 14:37 | 46.01283 | 6.05217 | 35237 ft | 448 kts | 132° |
| 2026-05-01 14:38 | 45.97210 | 6.11986 | 35241 ft | 448 kts | 132° |
| 2026-05-01 14:38 | 45.93130 | 6.18750 | 35239 ft | 447 kts | 132° |
| 2026-05-01 14:39 | 45.89078 | 6.25453 | 35242 ft | 448 kts | 132° |
| 2026-05-01 14:39 | 45.84966 | 6.32241 | 35255 ft | 448 kts | 132° |
| 2026-05-01 14:40 | 45.80820 | 6.38902 | 35242 ft | 447 kts | 137° |
| 2026-05-01 14:40 | 45.75935 | 6.44281 | 35264 ft | 444 kts | 146° |
| 2026-05-01 14:41 | 45.70851 | 6.49321 | 35262 ft | 444 kts | 146° |
| 2026-05-01 14:41 | 45.65779 | 6.54391 | 35263 ft | 445 kts | 146° |
| 2026-05-01 14:42 | 45.60723 | 6.59498 | 35272 ft | 445 kts | 146° |
| 2026-05-01 14:42 | 45.55664 | 6.64617 | 35267 ft | 446 kts | 146° |
| 2026-05-01 14:43 | 45.50603 | 6.69728 | 35277 ft | 446 kts | 146° |
| 2026-05-01 14:43 | 45.45525 | 6.74842 | 35282 ft | 447 kts | 145° |
| 2026-05-01 14:44 | 45.40445 | 6.79945 | 35297 ft | 447 kts | 145° |
| 2026-05-01 14:44 | 45.32801 | 6.87604 | 35309 ft | 449 kts | 145° |
| 2026-05-01 14:45 | 45.25234 | 6.95445 | 35300 ft | 450 kts | 137° |
| 2026-05-01 14:46 | 45.20778 | 7.01651 | 35308 ft | 448 kts | 135° |
| 2026-05-01 14:46 | 45.14122 | 7.10963 | 35291 ft | 448 kts | 136° |
| 2026-05-01 14:47 | 45.09783 | 7.17269 | 35285 ft | 447 kts | 127° |
| 2026-05-01 14:48 | 45.04485 | 7.28087 | 35295 ft | 446 kts | 124° |
| 2026-05-01 14:48 | 44.99156 | 7.38886 | 35304 ft | 446 kts | 125° |
| 2026-05-01 14:49 | 44.90601 | 7.51601 | 35367 ft | 446 kts | 136° |
| 2026-05-01 14:50 | 44.81743 | 7.63844 | 35357 ft | 446 kts | 135° |
| 2026-05-01 14:51 | 44.76313 | 7.71407 | 35361 ft | 445 kts | 135° |
| 2026-05-01 14:52 | 44.69523 | 7.80843 | 35367 ft | 445 kts | 135° |
| 2026-05-01 14:53 | 44.62900 | 7.90012 | 35369 ft | 446 kts | 135° |
| 2026-05-01 14:53 | 44.58482 | 7.96110 | 35360 ft | 447 kts | 135° |
| 2026-05-01 14:54 | 44.54048 | 8.02217 | 35353 ft | 447 kts | 135° |
| 2026-05-01 14:54 | 44.49598 | 8.08331 | 35342 ft | 448 kts | 135° |
| 2026-05-01 14:55 | 44.45175 | 8.14396 | 35339 ft | 448 kts | 135° |
| 2026-05-01 14:55 | 44.40689 | 8.20532 | 35333 ft | 448 kts | 135° |
| 2026-05-01 14:56 | 44.36230 | 8.26619 | 35322 ft | 448 kts | 135° |
| 2026-05-01 14:56 | 44.31763 | 8.32702 | 35316 ft | 449 kts | 135° |
| 2026-05-01 14:57 | 44.27286 | 8.38785 | 35308 ft | 449 kts | 135° |
| 2026-05-01 14:57 | 44.20558 | 8.47901 | 35308 ft | 450 kts | 135° |
| 2026-05-01 14:58 | 44.16038 | 8.54009 | 35303 ft | 450 kts | 135° |
| 2026-05-01 14:58 | 44.11541 | 8.60072 | 35295 ft | 450 kts | 135° |
| 2026-05-01 14:59 | 44.07039 | 8.66127 | 35296 ft | 450 kts | 135° |
| 2026-05-01 14:59 | 44.02536 | 8.72172 | 35294 ft | 451 kts | 134° |
| 2026-05-01 15:00 | 43.95748 | 8.81258 | 35293 ft | 451 kts | 134° |
| 2026-05-01 15:01 | 43.91253 | 8.87258 | 35292 ft | 452 kts | 134° |
| 2026-05-01 15:01 | 43.86649 | 8.93391 | 35296 ft | 452 kts | 134° |
| 2026-05-01 15:02 | 43.82112 | 8.99423 | 35294 ft | 453 kts | 134° |
| 2026-05-01 15:02 | 43.77659 | 9.05578 | 35291 ft | 453 kts | 131° |
| 2026-05-01 15:03 | 43.73363 | 9.11949 | 35300 ft | 453 kts | 131° |
| 2026-05-01 15:03 | 43.69061 | 9.18322 | 35299 ft | 454 kts | 131° |
| 2026-05-01 15:04 | 43.64726 | 9.24665 | 35297 ft | 454 kts | 131° |
| 2026-05-01 15:04 | 43.60305 | 9.31088 | 35292 ft | 455 kts | 131° |
| 2026-05-01 15:05 | 43.55918 | 9.37445 | 35298 ft | 455 kts | 131° |
| 2026-05-01 15:05 | 43.51551 | 9.43760 | 35303 ft | 456 kts | 131° |
| 2026-05-01 15:06 | 43.47170 | 9.50082 | 35297 ft | 456 kts | 131° |
| 2026-05-01 15:06 | 43.42788 | 9.56393 | 35295 ft | 456 kts | 131° |
| 2026-05-01 15:07 | 43.38397 | 9.62702 | 35293 ft | 456 kts | 131° |
| 2026-05-01 15:07 | 43.34004 | 9.69000 | 35287 ft | 457 kts | 131° |
| 2026-05-01 15:08 | 43.29573 | 9.75342 | 35287 ft | 457 kts | 131° |
| 2026-05-01 15:08 | 43.25184 | 9.81572 | 35287 ft | 458 kts | 134° |
| 2026-05-01 15:09 | 43.20273 | 9.87260 | 35297 ft | 459 kts | 140° |
| 2026-05-01 15:09 | 43.14787 | 9.91774 | 35290 ft | 462 kts | 152° |
| 2026-05-01 15:10 | 43.09020 | 9.95688 | 35276 ft | 463 kts | 152° |
| 2026-05-01 15:10 | 43.00373 | 10.01590 | 35274 ft | 464 kts | 152° |
| 2026-05-01 15:11 | 42.91723 | 10.07558 | 35275 ft | 465 kts | 152° |
| 2026-05-01 15:12 | 42.85945 | 10.11544 | 35270 ft | 465 kts | 152° |
| 2026-05-01 15:12 | 42.77262 | 10.17515 | 35272 ft | 467 kts | 152° |
| 2026-05-01 15:14 | 42.62740 | 10.27455 | 35264 ft | 468 kts | 152° |
| 2026-05-01 15:14 | 42.54981 | 10.32744 | 35261 ft | 469 kts | 152° |
| 2026-05-01 15:15 | 42.43265 | 10.40703 | 35257 ft | 470 kts | 152° |
| 2026-05-01 15:16 | 42.31432 | 10.48708 | 35255 ft | 471 kts | 153° |
| 2026-05-01 15:18 | 42.16738 | 10.58601 | 35251 ft | 472 kts | 153° |
| 2026-05-01 15:19 | 42.04955 | 10.66497 | 35233 ft | 474 kts | 153° |
| 2026-05-01 15:19 | 41.96084 | 10.72420 | 35235 ft | 475 kts | 153° |
| 2026-05-01 15:20 | 41.87190 | 10.78339 | 35239 ft | 476 kts | 153° |
| 2026-05-01 15:21 | 41.81250 | 10.82283 | 35230 ft | 477 kts | 153° |
| 2026-05-01 15:21 | 41.75296 | 10.86227 | 35233 ft | 477 kts | 153° |
| 2026-05-01 15:22 | 41.66358 | 10.92133 | 35224 ft | 478 kts | 153° |
| 2026-05-01 15:22 | 41.60496 | 10.95996 | 35225 ft | 478 kts | 153° |
| 2026-05-01 15:23 | 41.54415 | 10.99996 | 35216 ft | 479 kts | 154° |
| 2026-05-01 15:23 | 41.48434 | 11.03921 | 35219 ft | 479 kts | 154° |
| 2026-05-01 15:24 | 41.42463 | 11.07831 | 35223 ft | 479 kts | 154° |
| 2026-05-01 15:24 | 41.36398 | 11.11795 | 35221 ft | 480 kts | 154° |
| 2026-05-01 15:25 | 41.30397 | 11.15709 | 35218 ft | 480 kts | 154° |
| 2026-05-01 15:25 | 41.24356 | 11.19641 | 35217 ft | 480 kts | 154° |
| 2026-05-01 15:26 | 41.18342 | 11.23547 | 35220 ft | 481 kts | 154° |
| 2026-05-01 15:26 | 41.12331 | 11.27444 | 35220 ft | 481 kts | 154° |
| 2026-05-01 15:27 | 41.06348 | 11.31314 | 35219 ft | 481 kts | 155° |
| 2026-05-01 15:28 | 40.97276 | 11.37167 | 35223 ft | 482 kts | 155° |
| 2026-05-01 15:28 | 40.91243 | 11.41050 | 35217 ft | 482 kts | 155° |
| 2026-05-01 15:29 | 40.82194 | 11.46859 | 35219 ft | 483 kts | 155° |
| 2026-05-01 15:30 | 40.70045 | 11.54630 | 35219 ft | 484 kts | 155° |
| 2026-05-01 15:31 | 40.52823 | 11.65592 | 35222 ft | 485 kts | 155° |
| 2026-05-01 15:32 | 40.39529 | 11.74010 | 35220 ft | 486 kts | 156° |
| 2026-05-01 15:34 | 40.33394 | 11.77883 | 35223 ft | 486 kts | 156° |